sensor_id;sensor_type;location;lat;lon;timestamp;temperature;humidity
52267;DHT22;38223;50.940;4.034;2023-08-08T00:01:54;16.20;99.90
52267;DHT22;38223;50.940;4.034;2023-08-08T00:04:26;16.20;99.90
52267;DHT22;38223;50.940;4.034;2023-08-08T00:07:01;16.30;99.90
52267;DHT22;38223;50.940;4.034;2023-08-08T00:09:37;16.30;99.90
52267;DHT22;38223;50.940;4.034;2023-08-08T00:12:06;16.30;99.90
52267;DHT22;38223;50.940;4.034;2023-08-08T00:14:40;16.40;99.90
52267;DHT22;38223;50.940;4.034;2023-08-08T00:17:10;16.40;99.90
52267;DHT22;38223;50.940;4.034;2023-08-08T00:19:39;16.30;99.90
52267;DHT22;38223;50.940;4.034;2023-08-08T00:22:11;16.30;99.90
52267;DHT22;38223;50.940;4.034;2023-08-08T00:24:47;16.50;99.90
52267;DHT22;38223;50.940;4.034;2023-08-08T00:27:21;16.40;99.90
52267;DHT22;38223;50.940;4.034;2023-08-08T00:29:54;16.40;99.90
52267;DHT22;38223;50.940;4.034;2023-08-08T00:32:25;16.40;99.90
52267;DHT22;38223;50.940;4.034;2023-08-08T00:34:57;16.20;99.90
52267;DHT22;38223;50.940;4.034;2023-08-08T00:37:30;16.30;99.90
52267;DHT22;38223;50.940;4.034;2023-08-08T00:40:06;16.10;99.90
52267;DHT22;38223;50.940;4.034;2023-08-08T00:42:38;16.10;99.90
52267;DHT22;38223;50.940;4.034;2023-08-08T00:45:11;16.00;99.90
52267;DHT22;38223;50.940;4.034;2023-08-08T00:47:46;15.90;99.90
52267;DHT22;38223;50.940;4.034;2023-08-08T00:50:19;15.90;99.90
52267;DHT22;38223;50.940;4.034;2023-08-08T00:52:54;16.00;99.90
52267;DHT22;38223;50.940;4.034;2023-08-08T00:55:28;16.00;99.90
52267;DHT22;38223;50.940;4.034;2023-08-08T00:57:58;15.90;99.90
52267;DHT22;38223;50.940;4.034;2023-08-08T01:00:29;16.00;99.90
52267;DHT22;38223;50.940;4.034;2023-08-08T01:03:00;16.00;99.90
52267;DHT22;38223;50.940;4.034;2023-08-08T01:05:33;16.00;99.90
52267;DHT22;38223;50.940;4.034;2023-08-08T01:08:06;15.90;99.90
52267;DHT22;38223;50.940;4.034;2023-08-08T01:10:41;15.80;99.90
52267;DHT22;38223;50.940;4.034;2023-08-08T01:13:23;15.80;99.90
52267;DHT22;38223;50.940;4.034;2023-08-08T01:15:56;15.80;99.90
52267;DHT22;38223;50.940;4.034;2023-08-08T01:18:31;15.90;99.90
52267;DHT22;38223;50.940;4.034;2023-08-08T01:21:05;16.10;99.90
52267;DHT22;38223;50.940;4.034;2023-08-08T01:24:16;15.90;99.90
52267;DHT22;38223;50.940;4.034;2023-08-08T01:26:52;15.80;99.90
52267;DHT22;38223;50.940;4.034;2023-08-08T01:29:22;15.80;99.90
52267;DHT22;38223;50.940;4.034;2023-08-08T01:31:55;15.80;99.90
52267;DHT22;38223;50.940;4.034;2023-08-08T01:34:26;15.80;99.90
52267;DHT22;38223;50.940;4.034;2023-08-08T01:37:14;15.80;99.90
52267;DHT22;38223;50.940;4.034;2023-08-08T01:39:44;15.80;99.90
52267;DHT22;38223;50.940;4.034;2023-08-08T01:42:18;15.80;99.90
52267;DHT22;38223;50.940;4.034;2023-08-08T01:44:51;15.80;99.90
52267;DHT22;38223;50.940;4.034;2023-08-08T01:47:23;15.80;99.90
52267;DHT22;38223;50.940;4.034;2023-08-08T01:49:56;15.70;99.90
52267;DHT22;38223;50.940;4.034;2023-08-08T01:52:24;15.70;99.90
52267;DHT22;38223;50.940;4.034;2023-08-08T01:54:56;15.80;99.90
52267;DHT22;38223;50.940;4.034;2023-08-08T01:57:27;15.80;99.90
52267;DHT22;38223;50.940;4.034;2023-08-08T02:00:01;15.80;99.90
52267;DHT22;38223;50.940;4.034;2023-08-08T02:02:30;15.80;99.90
52267;DHT22;38223;50.940;4.034;2023-08-08T02:05:05;15.80;99.90
52267;DHT22;38223;50.940;4.034;2023-08-08T02:07:34;15.70;99.90
52267;DHT22;38223;50.940;4.034;2023-08-08T02:10:10;15.60;99.90
52267;DHT22;38223;50.940;4.034;2023-08-08T02:12:45;15.70;99.90
52267;DHT22;38223;50.940;4.034;2023-08-08T02:15:19;15.60;99.90
52267;DHT22;38223;50.940;4.034;2023-08-08T02:17:50;15.60;99.90
52267;DHT22;38223;50.940;4.034;2023-08-08T02:20:22;15.50;99.90
52267;DHT22;38223;50.940;4.034;2023-08-08T02:22:56;15.60;99.90
52267;DHT22;38223;50.940;4.034;2023-08-08T02:25:26;15.60;99.90
52267;DHT22;38223;50.940;4.034;2023-08-08T02:27:57;15.60;99.90
52267;DHT22;38223;50.940;4.034;2023-08-08T02:30:29;15.60;99.90
52267;DHT22;38223;50.940;4.034;2023-08-08T02:33:01;15.60;99.90
52267;DHT22;38223;50.940;4.034;2023-08-08T02:35:30;15.60;99.90
52267;DHT22;38223;50.940;4.034;2023-08-08T02:38:04;15.50;99.90
52267;DHT22;38223;50.940;4.034;2023-08-08T02:40:33;15.40;99.90
52267;DHT22;38223;50.940;4.034;2023-08-08T02:43:07;15.40;99.90
52267;DHT22;38223;50.940;4.034;2023-08-08T02:45:37;15.50;99.90
52267;DHT22;38223;50.940;4.034;2023-08-08T02:48:09;15.40;99.90
52267;DHT22;38223;50.940;4.034;2023-08-08T02:50:42;15.50;99.90
52267;DHT22;38223;50.940;4.034;2023-08-08T02:53:12;15.50;99.90
52267;DHT22;38223;50.940;4.034;2023-08-08T02:55:44;15.50;99.90
52267;DHT22;38223;50.940;4.034;2023-08-08T02:58:20;15.40;99.90
52267;DHT22;38223;50.940;4.034;2023-08-08T03:00:50;15.40;99.90
52267;DHT22;38223;50.940;4.034;2023-08-08T03:03:22;15.40;99.90
52267;DHT22;38223;50.940;4.034;2023-08-08T03:05:53;15.40;99.90
52267;DHT22;38223;50.940;4.034;2023-08-08T03:08:23;15.40;99.90
52267;DHT22;38223;50.940;4.034;2023-08-08T03:10:57;15.40;99.90
52267;DHT22;38223;50.940;4.034;2023-08-08T03:13:27;15.50;99.90
52267;DHT22;38223;50.940;4.034;2023-08-08T03:15:58;15.50;99.90
52267;DHT22;38223;50.940;4.034;2023-08-08T03:18:32;15.50;99.90
52267;DHT22;38223;50.940;4.034;2023-08-08T03:20:59;15.50;99.90
52267;DHT22;38223;50.940;4.034;2023-08-08T03:23:32;15.50;99.90
52267;DHT22;38223;50.940;4.034;2023-08-08T03:26:05;15.50;99.90
52267;DHT22;38223;50.940;4.034;2023-08-08T03:28:40;15.40;99.90
52267;DHT22;38223;50.940;4.034;2023-08-08T03:31:14;15.30;99.90
52267;DHT22;38223;50.940;4.034;2023-08-08T03:33:44;15.30;99.90
52267;DHT22;38223;50.940;4.034;2023-08-08T03:36:22;15.30;99.90
52267;DHT22;38223;50.940;4.034;2023-08-08T03:38:50;15.30;99.90
52267;DHT22;38223;50.940;4.034;2023-08-08T03:41:18;15.30;99.90
52267;DHT22;38223;50.940;4.034;2023-08-08T03:43:50;15.30;99.90
52267;DHT22;38223;50.940;4.034;2023-08-08T03:46:27;15.40;99.90
52267;DHT22;38223;50.940;4.034;2023-08-08T03:48:58;15.40;99.90
52267;DHT22;38223;50.940;4.034;2023-08-08T03:51:33;15.40;99.90
52267;DHT22;38223;50.940;4.034;2023-08-08T03:54:01;15.40;99.90
52267;DHT22;38223;50.940;4.034;2023-08-08T03:56:32;15.40;99.90
52267;DHT22;38223;50.940;4.034;2023-08-08T03:59:04;15.30;99.90
52267;DHT22;38223;50.940;4.034;2023-08-08T04:01:38;15.30;99.90
52267;DHT22;38223;50.940;4.034;2023-08-08T04:04:10;15.40;99.90
52267;DHT22;38223;50.940;4.034;2023-08-08T04:06:43;15.50;99.90
52267;DHT22;38223;50.940;4.034;2023-08-08T04:09:17;15.50;99.90
52267;DHT22;38223;50.940;4.034;2023-08-08T04:11:47;15.50;99.90
52267;DHT22;38223;50.940;4.034;2023-08-08T04:14:18;15.60;99.90
52267;DHT22;38223;50.940;4.034;2023-08-08T04:16:52;15.70;99.90
52267;DHT22;38223;50.940;4.034;2023-08-08T04:19:22;15.70;99.90
52267;DHT22;38223;50.940;4.034;2023-08-08T04:21:53;15.60;99.90
52267;DHT22;38223;50.940;4.034;2023-08-08T04:24:26;15.60;99.90
52267;DHT22;38223;50.940;4.034;2023-08-08T04:26:56;15.50;99.90
52267;DHT22;38223;50.940;4.034;2023-08-08T04:29:26;15.50;99.90
52267;DHT22;38223;50.940;4.034;2023-08-08T04:31:58;15.50;99.90
52267;DHT22;38223;50.940;4.034;2023-08-08T04:34:29;15.40;99.90
52267;DHT22;38223;50.940;4.034;2023-08-08T04:36:59;15.50;99.90
52267;DHT22;38223;50.940;4.034;2023-08-08T04:39:36;15.50;99.90
52267;DHT22;38223;50.940;4.034;2023-08-08T04:42:05;15.40;99.90
52267;DHT22;38223;50.940;4.034;2023-08-08T04:44:38;15.30;99.90
52267;DHT22;38223;50.940;4.034;2023-08-08T04:47:08;15.30;99.90
52267;DHT22;38223;50.940;4.034;2023-08-08T04:49:40;15.40;99.90
52267;DHT22;38223;50.940;4.034;2023-08-08T04:52:09;15.60;99.90
52267;DHT22;38223;50.940;4.034;2023-08-08T04:54:40;15.60;99.90
52267;DHT22;38223;50.940;4.034;2023-08-08T04:57:09;15.80;99.90
52267;DHT22;38223;50.940;4.034;2023-08-08T04:59:40;15.80;99.90
52267;DHT22;38223;50.940;4.034;2023-08-08T05:02:12;15.80;99.90
52267;DHT22;38223;50.940;4.034;2023-08-08T05:04:43;15.70;99.90
52267;DHT22;38223;50.940;4.034;2023-08-08T05:07:14;15.60;99.90
52267;DHT22;38223;50.940;4.034;2023-08-08T05:09:47;15.40;99.90
52267;DHT22;38223;50.940;4.034;2023-08-08T05:12:20;15.40;99.90
52267;DHT22;38223;50.940;4.034;2023-08-08T05:14:56;15.40;99.90
52267;DHT22;38223;50.940;4.034;2023-08-08T05:17:26;15.30;99.90
52267;DHT22;38223;50.940;4.034;2023-08-08T05:20:01;15.20;99.90
52267;DHT22;38223;50.940;4.034;2023-08-08T05:22:31;15.30;99.90
52267;DHT22;38223;50.940;4.034;2023-08-08T05:25:05;15.30;99.90
52267;DHT22;38223;50.940;4.034;2023-08-08T05:27:35;15.30;99.90
52267;DHT22;38223;50.940;4.034;2023-08-08T05:30:06;15.30;99.90
52267;DHT22;38223;50.940;4.034;2023-08-08T05:32:38;15.40;99.90
52267;DHT22;38223;50.940;4.034;2023-08-08T05:35:12;15.40;99.90
52267;DHT22;38223;50.940;4.034;2023-08-08T05:37:44;15.50;99.90
52267;DHT22;38223;50.940;4.034;2023-08-08T05:40:18;15.50;99.90
52267;DHT22;38223;50.940;4.034;2023-08-08T05:42:51;15.60;99.90
52267;DHT22;38223;50.940;4.034;2023-08-08T05:45:24;15.40;99.90
52267;DHT22;38223;50.940;4.034;2023-08-08T05:47:56;15.30;99.90
52267;DHT22;38223;50.940;4.034;2023-08-08T05:50:30;15.40;99.90
52267;DHT22;38223;50.940;4.034;2023-08-08T05:53:03;15.60;99.90
52267;DHT22;38223;50.940;4.034;2023-08-08T05:55:37;15.70;99.90
52267;DHT22;38223;50.940;4.034;2023-08-08T05:58:14;15.90;99.90
52267;DHT22;38223;50.940;4.034;2023-08-08T06:00:44;15.70;99.90
52267;DHT22;38223;50.940;4.034;2023-08-08T06:03:16;15.80;99.90
52267;DHT22;38223;50.940;4.034;2023-08-08T06:05:50;15.90;99.90
52267;DHT22;38223;50.940;4.034;2023-08-08T06:08:21;16.00;99.90
52267;DHT22;38223;50.940;4.034;2023-08-08T06:10:52;16.10;99.90
52267;DHT22;38223;50.940;4.034;2023-08-08T06:13:21;16.30;99.90
52267;DHT22;38223;50.940;4.034;2023-08-08T06:15:56;16.30;99.90
52267;DHT22;38223;50.940;4.034;2023-08-08T06:21:17;16.30;99.90
52267;DHT22;38223;50.940;4.034;2023-08-08T06:23:51;16.30;99.90
52267;DHT22;38223;50.940;4.034;2023-08-08T06:26:22;16.30;99.90
52267;DHT22;38223;50.940;4.034;2023-08-08T06:28:56;16.40;99.90
52267;DHT22;38223;50.940;4.034;2023-08-08T06:31:29;16.40;99.90
52267;DHT22;38223;50.940;4.034;2023-08-08T06:33:59;16.40;99.90
52267;DHT22;38223;50.940;4.034;2023-08-08T06:36:29;16.60;99.90
52267;DHT22;38223;50.940;4.034;2023-08-08T06:39:03;16.60;99.90
52267;DHT22;38223;50.940;4.034;2023-08-08T06:41:32;16.60;99.90
52267;DHT22;38223;50.940;4.034;2023-08-08T06:44:06;16.50;99.90
52267;DHT22;38223;50.940;4.034;2023-08-08T06:46:35;16.40;99.90
52267;DHT22;38223;50.940;4.034;2023-08-08T06:49:04;16.30;99.90
52267;DHT22;38223;50.940;4.034;2023-08-08T06:51:58;16.30;99.90
52267;DHT22;38223;50.940;4.034;2023-08-08T06:54:29;16.40;99.90
52267;DHT22;38223;50.940;4.034;2023-08-08T06:57:03;16.50;99.90
52267;DHT22;38223;50.940;4.034;2023-08-08T06:59:33;16.80;99.90
52267;DHT22;38223;50.940;4.034;2023-08-08T07:02:11;16.90;99.90
52267;DHT22;38223;50.940;4.034;2023-08-08T07:04:40;16.80;99.90
52267;DHT22;38223;50.940;4.034;2023-08-08T07:07:10;16.90;99.90
52267;DHT22;38223;50.940;4.034;2023-08-08T07:09:40;17.00;99.90
52267;DHT22;38223;50.940;4.034;2023-08-08T07:12:10;17.00;99.90
52267;DHT22;38223;50.940;4.034;2023-08-08T07:14:41;17.00;99.90
52267;DHT22;38223;50.940;4.034;2023-08-08T07:17:13;16.90;99.90
52267;DHT22;38223;50.940;4.034;2023-08-08T07:19:46;17.10;99.90
52267;DHT22;38223;50.940;4.034;2023-08-08T07:22:21;17.10;99.90
52267;DHT22;38223;50.940;4.034;2023-08-08T07:24:51;17.20;99.90
52267;DHT22;38223;50.940;4.034;2023-08-08T07:27:24;17.20;99.90
52267;DHT22;38223;50.940;4.034;2023-08-08T07:29:55;17.20;99.90
52267;DHT22;38223;50.940;4.034;2023-08-08T07:32:30;17.20;99.90
52267;DHT22;38223;50.940;4.034;2023-08-08T07:34:57;17.20;99.90
52267;DHT22;38223;50.940;4.034;2023-08-08T07:37:31;17.20;99.90
52267;DHT22;38223;50.940;4.034;2023-08-08T07:39:59;17.30;99.90
52267;DHT22;38223;50.940;4.034;2023-08-08T07:42:33;17.30;99.90
52267;DHT22;38223;50.940;4.034;2023-08-08T07:45:04;17.40;99.90
52267;DHT22;38223;50.940;4.034;2023-08-08T07:47:40;17.50;99.90
52267;DHT22;38223;50.940;4.034;2023-08-08T07:50:10;17.70;99.90
52267;DHT22;38223;50.940;4.034;2023-08-08T07:52:42;17.60;99.90
52267;DHT22;38223;50.940;4.034;2023-08-08T07:55:14;17.70;99.90
52267;DHT22;38223;50.940;4.034;2023-08-08T07:57:49;17.70;99.90
52267;DHT22;38223;50.940;4.034;2023-08-08T08:00:20;17.70;99.90
52267;DHT22;38223;50.940;4.034;2023-08-08T08:02:50;17.90;99.90
52267;DHT22;38223;50.940;4.034;2023-08-08T08:05:21;17.90;99.90
52267;DHT22;38223;50.940;4.034;2023-08-08T08:07:53;17.90;99.90
52267;DHT22;38223;50.940;4.034;2023-08-08T08:10:22;17.90;99.90
52267;DHT22;38223;50.940;4.034;2023-08-08T08:12:52;17.80;99.90
52267;DHT22;38223;50.940;4.034;2023-08-08T08:15:30;17.80;99.90
52267;DHT22;38223;50.940;4.034;2023-08-08T08:17:59;17.80;99.90
52267;DHT22;38223;50.940;4.034;2023-08-08T08:20:31;17.80;99.90
52267;DHT22;38223;50.940;4.034;2023-08-08T08:23:02;17.80;99.90
52267;DHT22;38223;50.940;4.034;2023-08-08T08:25:34;17.80;99.90
52267;DHT22;38223;50.940;4.034;2023-08-08T08:28:09;17.90;99.90
52267;DHT22;38223;50.940;4.034;2023-08-08T08:30:57;18.00;99.90
52267;DHT22;38223;50.940;4.034;2023-08-08T08:33:28;18.20;99.90
52267;DHT22;38223;50.940;4.034;2023-08-08T08:35:59;18.40;99.90
52267;DHT22;38223;50.940;4.034;2023-08-08T08:38:30;18.40;99.90
52267;DHT22;38223;50.940;4.034;2023-08-08T08:41:03;18.40;99.90
52267;DHT22;38223;50.940;4.034;2023-08-08T08:43:33;18.20;99.90
52267;DHT22;38223;50.940;4.034;2023-08-08T08:46:07;18.20;99.90
52267;DHT22;38223;50.940;4.034;2023-08-08T08:48:42;18.20;99.90
52267;DHT22;38223;50.940;4.034;2023-08-08T08:51:13;18.30;99.90
52267;DHT22;38223;50.940;4.034;2023-08-08T08:53:45;18.20;99.90
52267;DHT22;38223;50.940;4.034;2023-08-08T08:56:19;18.20;99.90
52267;DHT22;38223;50.940;4.034;2023-08-08T08:58:51;18.10;99.90
52267;DHT22;38223;50.940;4.034;2023-08-08T09:01:26;18.10;99.90
52267;DHT22;38223;50.940;4.034;2023-08-08T09:03:56;18.10;99.90
52267;DHT22;38223;50.940;4.034;2023-08-08T09:06:30;18.20;99.90
52267;DHT22;38223;50.940;4.034;2023-08-08T09:09:00;18.30;99.90
52267;DHT22;38223;50.940;4.034;2023-08-08T09:11:31;18.30;99.90
52267;DHT22;38223;50.940;4.034;2023-08-08T09:14:03;18.30;99.90
52267;DHT22;38223;50.940;4.034;2023-08-08T09:16:32;18.50;99.90
52267;DHT22;38223;50.940;4.034;2023-08-08T09:19:09;18.50;99.90
52267;DHT22;38223;50.940;4.034;2023-08-08T09:21:38;18.60;99.90
52267;DHT22;38223;50.940;4.034;2023-08-08T09:24:10;18.40;99.90
52267;DHT22;38223;50.940;4.034;2023-08-08T09:26:42;18.40;99.90
52267;DHT22;38223;50.940;4.034;2023-08-08T09:29:16;18.50;99.90
52267;DHT22;38223;50.940;4.034;2023-08-08T09:31:48;18.50;99.90
52267;DHT22;38223;50.940;4.034;2023-08-08T09:34:26;18.60;99.90
52267;DHT22;38223;50.940;4.034;2023-08-08T09:37:02;18.70;99.90
52267;DHT22;38223;50.940;4.034;2023-08-08T09:39:29;18.60;99.90
52267;DHT22;38223;50.940;4.034;2023-08-08T09:42:03;18.70;99.90
52267;DHT22;38223;50.940;4.034;2023-08-08T09:44:38;18.60;99.90
52267;DHT22;38223;50.940;4.034;2023-08-08T09:47:11;18.60;99.90
52267;DHT22;38223;50.940;4.034;2023-08-08T09:49:39;18.50;99.90
52267;DHT22;38223;50.940;4.034;2023-08-08T09:52:11;18.50;99.90
52267;DHT22;38223;50.940;4.034;2023-08-08T09:54:41;18.50;99.90
52267;DHT22;38223;50.940;4.034;2023-08-08T09:57:17;18.60;99.90
52267;DHT22;38223;50.940;4.034;2023-08-08T09:59:51;18.70;99.90
52267;DHT22;38223;50.940;4.034;2023-08-08T10:02:21;18.70;99.90
52267;DHT22;38223;50.940;4.034;2023-08-08T10:04:57;18.70;99.90
52267;DHT22;38223;50.940;4.034;2023-08-08T10:07:26;18.70;99.90
52267;DHT22;38223;50.940;4.034;2023-08-08T10:10:00;18.70;99.90
52267;DHT22;38223;50.940;4.034;2023-08-08T10:12:32;18.70;99.90
52267;DHT22;38223;50.940;4.034;2023-08-08T10:15:06;18.70;99.90
52267;DHT22;38223;50.940;4.034;2023-08-08T10:17:40;18.70;99.90
52267;DHT22;38223;50.940;4.034;2023-08-08T10:20:13;18.70;99.90
52267;DHT22;38223;50.940;4.034;2023-08-08T10:22:45;18.80;99.90
52267;DHT22;38223;50.940;4.034;2023-08-08T10:25:22;18.90;99.90
52267;DHT22;38223;50.940;4.034;2023-08-08T10:28:01;19.20;99.90
52267;DHT22;38223;50.940;4.034;2023-08-08T10:30:26;19.20;99.90
52267;DHT22;38223;50.940;4.034;2023-08-08T10:33:00;19.30;99.90
52267;DHT22;38223;50.940;4.034;2023-08-08T10:35:36;19.30;99.90
52267;DHT22;38223;50.940;4.034;2023-08-08T10:38:10;19.30;99.90
52267;DHT22;38223;50.940;4.034;2023-08-08T10:40:42;19.40;99.90
52267;DHT22;38223;50.940;4.034;2023-08-08T10:43:16;19.40;99.90
52267;DHT22;38223;50.940;4.034;2023-08-08T10:45:46;19.40;99.90
52267;DHT22;38223;50.940;4.034;2023-08-08T10:48:22;19.20;99.90
52267;DHT22;38223;50.940;4.034;2023-08-08T10:50:50;19.20;99.90
52267;DHT22;38223;50.940;4.034;2023-08-08T10:53:28;19.30;99.90
52267;DHT22;38223;50.940;4.034;2023-08-08T10:56:04;19.50;99.90
52267;DHT22;38223;50.940;4.034;2023-08-08T10:58:38;19.60;99.90
52267;DHT22;38223;50.940;4.034;2023-08-08T11:01:11;19.30;99.90
52267;DHT22;38223;50.940;4.034;2023-08-08T11:03:42;19.40;99.90
52267;DHT22;38223;50.940;4.034;2023-08-08T11:06:16;19.40;99.90
52267;DHT22;38223;50.940;4.034;2023-08-08T11:08:45;19.50;99.90
52267;DHT22;38223;50.940;4.034;2023-08-08T11:11:18;19.60;99.90
52267;DHT22;38223;50.940;4.034;2023-08-08T11:13:53;19.60;99.90
52267;DHT22;38223;50.940;4.034;2023-08-08T11:16:31;19.70;99.90
52267;DHT22;38223;50.940;4.034;2023-08-08T11:19:00;19.90;99.90
52267;DHT22;38223;50.940;4.034;2023-08-08T11:21:35;20.00;99.90
52267;DHT22;38223;50.940;4.034;2023-08-08T11:24:05;20.00;99.90
52267;DHT22;38223;50.940;4.034;2023-08-08T11:26:38;19.90;99.90
52267;DHT22;38223;50.940;4.034;2023-08-08T11:29:16;19.60;99.90
52267;DHT22;38223;50.940;4.034;2023-08-08T11:31:44;19.50;99.90
52267;DHT22;38223;50.940;4.034;2023-08-08T11:34:18;19.50;99.90
52267;DHT22;38223;50.940;4.034;2023-08-08T11:36:49;19.60;99.90
52267;DHT22;38223;50.940;4.034;2023-08-08T11:39:20;19.70;99.90
52267;DHT22;38223;50.940;4.034;2023-08-08T11:41:55;19.70;99.90
52267;DHT22;38223;50.940;4.034;2023-08-08T11:44:27;19.70;99.90
52267;DHT22;38223;50.940;4.034;2023-08-08T11:47:02;19.70;99.90
52267;DHT22;38223;50.940;4.034;2023-08-08T11:49:37;19.80;99.90
52267;DHT22;38223;50.940;4.034;2023-08-08T11:52:03;19.90;99.90
52267;DHT22;38223;50.940;4.034;2023-08-08T11:54:36;20.10;99.90
52267;DHT22;38223;50.940;4.034;2023-08-08T11:57:07;20.30;99.90
52267;DHT22;38223;50.940;4.034;2023-08-08T11:59:43;20.20;99.90
52267;DHT22;38223;50.940;4.034;2023-08-08T12:02:13;20.00;99.90
52267;DHT22;38223;50.940;4.034;2023-08-08T12:04:46;19.80;99.90
52267;DHT22;38223;50.940;4.034;2023-08-08T12:07:19;19.90;99.90
52267;DHT22;38223;50.940;4.034;2023-08-08T12:09:54;19.90;99.90
52267;DHT22;38223;50.940;4.034;2023-08-08T12:12:28;19.90;99.90
52267;DHT22;38223;50.940;4.034;2023-08-08T12:15:08;19.90;99.90
52267;DHT22;38223;50.940;4.034;2023-08-08T12:17:39;20.00;99.90
52267;DHT22;38223;50.940;4.034;2023-08-08T12:20:14;20.10;99.90
52267;DHT22;38223;50.940;4.034;2023-08-08T12:22:42;20.10;99.90
52267;DHT22;38223;50.940;4.034;2023-08-08T12:25:15;20.10;99.90
52267;DHT22;38223;50.940;4.034;2023-08-08T12:27:47;19.90;99.90
52267;DHT22;38223;50.940;4.034;2023-08-08T12:30:20;19.80;99.90
52267;DHT22;38223;50.940;4.034;2023-08-08T12:32:56;19.90;99.90
52267;DHT22;38223;50.940;4.034;2023-08-08T12:35:26;19.90;99.90
52267;DHT22;38223;50.940;4.034;2023-08-08T12:37:57;20.00;99.90
52267;DHT22;38223;50.940;4.034;2023-08-08T12:40:27;20.00;99.90
52267;DHT22;38223;50.940;4.034;2023-08-08T12:43:00;20.00;99.90
52267;DHT22;38223;50.940;4.034;2023-08-08T12:45:32;20.00;99.90
52267;DHT22;38223;50.940;4.034;2023-08-08T12:48:04;20.00;99.90
52267;DHT22;38223;50.940;4.034;2023-08-08T12:50:36;20.00;99.90
52267;DHT22;38223;50.940;4.034;2023-08-08T12:53:09;20.10;99.90
52267;DHT22;38223;50.940;4.034;2023-08-08T12:55:40;20.20;99.90
52267;DHT22;38223;50.940;4.034;2023-08-08T12:58:19;20.20;99.90
52267;DHT22;38223;50.940;4.034;2023-08-08T13:00:49;20.30;99.90
52267;DHT22;38223;50.940;4.034;2023-08-08T13:03:19;20.30;99.90
52267;DHT22;38223;50.940;4.034;2023-08-08T13:05:54;20.50;99.90
52267;DHT22;38223;50.940;4.034;2023-08-08T13:08:25;20.80;99.90
52267;DHT22;38223;50.940;4.034;2023-08-08T13:11:03;20.50;99.90
52267;DHT22;38223;50.940;4.034;2023-08-08T13:13:31;20.20;99.90
52267;DHT22;38223;50.940;4.034;2023-08-08T13:16:05;20.10;99.90
52267;DHT22;38223;50.940;4.034;2023-08-08T13:18:37;20.10;99.90
52267;DHT22;38223;50.940;4.034;2023-08-08T13:21:10;20.10;99.90
52267;DHT22;38223;50.940;4.034;2023-08-08T13:23:42;20.40;99.90
52267;DHT22;38223;50.940;4.034;2023-08-08T13:26:18;20.50;99.90
52267;DHT22;38223;50.940;4.034;2023-08-08T13:28:51;20.70;99.90
52267;DHT22;38223;50.940;4.034;2023-08-08T13:31:23;20.70;99.90
52267;DHT22;38223;50.940;4.034;2023-08-08T13:33:55;20.80;99.90
52267;DHT22;38223;50.940;4.034;2023-08-08T13:36:29;21.00;99.90
52267;DHT22;38223;50.940;4.034;2023-08-08T13:38:59;21.10;99.90
52267;DHT22;38223;50.940;4.034;2023-08-08T13:41:29;21.10;99.90
52267;DHT22;38223;50.940;4.034;2023-08-08T13:44:05;21.00;99.90
52267;DHT22;38223;50.940;4.034;2023-08-08T13:46:38;21.00;99.90
52267;DHT22;38223;50.940;4.034;2023-08-08T13:49:08;21.00;99.90
52267;DHT22;38223;50.940;4.034;2023-08-08T13:51:41;20.90;99.90
52267;DHT22;38223;50.940;4.034;2023-08-08T13:54:12;20.90;99.90
52267;DHT22;38223;50.940;4.034;2023-08-08T13:56:44;20.90;99.90
52267;DHT22;38223;50.940;4.034;2023-08-08T13:59:22;21.00;99.90
52267;DHT22;38223;50.940;4.034;2023-08-08T14:01:56;20.90;99.90
52267;DHT22;38223;50.940;4.034;2023-08-08T14:04:26;20.70;99.90
52267;DHT22;38223;50.940;4.034;2023-08-08T14:07:04;20.50;99.90
52267;DHT22;38223;50.940;4.034;2023-08-08T14:09:33;20.20;99.90
52267;DHT22;38223;50.940;4.034;2023-08-08T14:12:12;20.10;99.90
52267;DHT22;38223;50.940;4.034;2023-08-08T14:14:48;20.00;99.90
52267;DHT22;38223;50.940;4.034;2023-08-08T14:17:21;19.90;99.90
52267;DHT22;38223;50.940;4.034;2023-08-08T14:19:50;19.80;99.90
52267;DHT22;38223;50.940;4.034;2023-08-08T14:22:25;19.80;99.90
52267;DHT22;38223;50.940;4.034;2023-08-08T14:24:54;19.70;99.90
52267;DHT22;38223;50.940;4.034;2023-08-08T14:27:29;19.70;99.90
52267;DHT22;38223;50.940;4.034;2023-08-08T14:29:59;19.70;99.90
52267;DHT22;38223;50.940;4.034;2023-08-08T14:32:35;19.70;99.90
52267;DHT22;38223;50.940;4.034;2023-08-08T14:35:05;19.70;99.90
52267;DHT22;38223;50.940;4.034;2023-08-08T14:37:38;19.80;99.90
52267;DHT22;38223;50.940;4.034;2023-08-08T14:40:10;19.90;99.90
52267;DHT22;38223;50.940;4.034;2023-08-08T14:42:44;20.10;99.90
52267;DHT22;38223;50.940;4.034;2023-08-08T14:45:18;20.10;99.90
52267;DHT22;38223;50.940;4.034;2023-08-08T14:47:53;19.90;99.90
52267;DHT22;38223;50.940;4.034;2023-08-08T14:50:25;19.70;99.90
52267;DHT22;38223;50.940;4.034;2023-08-08T14:52:59;19.50;99.90
52267;DHT22;38223;50.940;4.034;2023-08-08T14:55:33;19.50;99.90
52267;DHT22;38223;50.940;4.034;2023-08-08T14:58:06;19.40;99.90
52267;DHT22;38223;50.940;4.034;2023-08-08T15:00:38;19.30;99.90
52267;DHT22;38223;50.940;4.034;2023-08-08T15:03:16;19.40;99.90
52267;DHT22;38223;50.940;4.034;2023-08-08T15:05:48;19.40;99.90
52267;DHT22;38223;50.940;4.034;2023-08-08T15:08:20;19.30;99.90
52267;DHT22;38223;50.940;4.034;2023-08-08T15:10:51;19.10;99.90
52267;DHT22;38223;50.940;4.034;2023-08-08T15:13:23;18.90;99.90
52267;DHT22;38223;50.940;4.034;2023-08-08T15:15:56;18.80;99.90
52267;DHT22;38223;50.940;4.034;2023-08-08T15:18:25;18.90;99.90
52267;DHT22;38223;50.940;4.034;2023-08-08T15:20:58;18.80;99.90
52267;DHT22;38223;50.940;4.034;2023-08-08T15:23:31;18.70;99.90
52267;DHT22;38223;50.940;4.034;2023-08-08T15:26:08;18.70;99.90
52267;DHT22;38223;50.940;4.034;2023-08-08T15:28:37;18.60;99.90
52267;DHT22;38223;50.940;4.034;2023-08-08T15:31:12;18.60;99.90
52267;DHT22;38223;50.940;4.034;2023-08-08T15:33:50;18.50;99.90
52267;DHT22;38223;50.940;4.034;2023-08-08T15:36:23;18.60;99.90
52267;DHT22;38223;50.940;4.034;2023-08-08T15:38:51;18.50;99.90
52267;DHT22;38223;50.940;4.034;2023-08-08T15:41:28;18.60;99.90
52267;DHT22;38223;50.940;4.034;2023-08-08T15:43:54;18.40;99.90
52267;DHT22;38223;50.940;4.034;2023-08-08T15:46:28;18.40;99.90
52267;DHT22;38223;50.940;4.034;2023-08-08T15:48:58;18.30;99.90
52267;DHT22;38223;50.940;4.034;2023-08-08T15:51:34;18.40;99.90
52267;DHT22;38223;50.940;4.034;2023-08-08T15:54:09;18.60;99.90
52267;DHT22;38223;50.940;4.034;2023-08-08T15:56:38;18.60;99.90
52267;DHT22;38223;50.940;4.034;2023-08-08T15:59:15;18.70;99.90
52267;DHT22;38223;50.940;4.034;2023-08-08T16:01:48;18.80;99.90
52267;DHT22;38223;50.940;4.034;2023-08-08T16:04:21;18.80;99.90
52267;DHT22;38223;50.940;4.034;2023-08-08T16:06:56;18.90;99.90